Time;durP1;ratioP1;P1;durP2;ratioP2;P2;SDS_P1;SDS_P2;PMS_P1;PMS_P2;Temp;Humidity;BMP_temperature;BMP_pressure;BME280_temperature;BME280_humidity;BME280_pressure;Samples;Min_cycle;Max_cycle;Signal;HPM_P1;HPM_P2
2023/09/09 00:01:21;;;;;;;8.90;7.40;;;;;;;14.76;85.09;101060.55;108892;277;38381;-73
2023/09/09 00:03:55;;;;;;;8.10;7.30;;;;;;;14.75;84.92;101060.08;108958;276;38585;-73
2023/09/09 00:06:30;;;;;;;8.10;7.20;;;;;;;14.72;84.94;101060.00;108960;277;38240;-74
2023/09/09 00:09:05;;;;;;;8.20;7.00;;;;;;;14.71;85.09;101058.31;109122;276;38716;-73
2023/09/09 00:11:39;;;;;;;10.20;7.00;;;;;;;14.68;84.89;101057.55;109105;276;38650;-74
2023/09/09 00:14:13;;;;;;;8.20;7.30;;;;;;;14.65;84.83;101058.00;109086;276;38276;-73
2023/09/09 00:16:47;;;;;;;7.60;6.90;;;;;;;14.64;85.15;101057.38;108939;276;38344;-72
2023/09/09 00:19:24;;;;;;;8.90;6.70;;;;;;;14.62;85.10;101053.79;109099;276;38282;-76
2023/09/09 00:21:58;;;;;;;8.30;7.10;;;;;;;14.57;84.90;101054.02;108993;276;175082;-75
2023/09/09 00:24:32;;;;;;;7.60;7.00;;;;;;;14.54;85.05;101051.14;109153;277;39144;-75
2023/09/09 00:27:08;;;;;;;8.60;7.80;;;;;;;14.52;85.24;101046.15;109070;276;39398;-75
2023/09/09 00:29:42;;;;;;;7.70;6.90;;;;;;;14.48;85.35;101049.45;109108;276;38501;-76
2023/09/09 00:32:16;;;;;;;9.90;6.80;;;;;;;14.46;85.46;101049.71;109106;276;40277;-75
2023/09/09 00:34:50;;;;;;;7.20;6.40;;;;;;;14.46;85.44;101048.13;109076;276;39326;-73
2023/09/09 00:37:24;;;;;;;10.90;7.30;;;;;;;14.40;85.25;101046.45;109191;276;38767;-75
2023/09/09 00:39:58;;;;;;;8.90;7.60;;;;;;;14.42;85.88;101047.08;108979;276;175117;-76
2023/09/09 00:42:32;;;;;;;8.40;7.20;;;;;;;14.42;85.98;101049.17;108987;276;175074;-75
2023/09/09 00:45:06;;;;;;;8.90;7.40;;;;;;;14.41;85.90;101049.76;109095;276;39348;-76
2023/09/09 00:47:40;;;;;;;8.60;7.80;;;;;;;14.40;85.98;101045.23;109117;277;38353;-72
2023/09/09 00:50:15;;;;;;;10.00;7.80;;;;;;;14.39;85.88;101045.95;109119;276;38413;-72
2023/09/09 00:52:49;;;;;;;8.70;7.70;;;;;;;14.39;85.94;101045.43;109095;276;38282;-74
2023/09/09 00:55:24;;;;;;;8.00;7.30;;;;;;;14.39;86.05;101045.60;109114;276;38234;-72
2023/09/09 00:57:58;;;;;;;10.10;8.50;;;;;;;14.40;86.22;101044.20;108991;277;38691;-77
2023/09/09 01:00:32;;;;;;;11.40;9.20;;;;;;;14.40;86.01;101048.93;109111;276;38354;-74
2023/09/09 01:03:06;;;;;;;11.20;8.80;;;;;;;14.37;85.94;101046.21;109143;276;38561;-72
2023/09/09 01:05:40;;;;;;;9.40;8.00;;;;;;;14.32;86.06;101044.51;109087;276;39377;-74
2023/09/09 01:08:15;;;;;;;9.60;8.40;;;;;;;14.32;86.33;101043.81;109130;276;38662;-74
2023/09/09 01:10:49;;;;;;;10.60;8.90;;;;;;;14.30;85.98;101046.88;109103;276;38700;-74
2023/09/09 01:13:22;;;;;;;12.00;9.50;;;;;;;14.26;86.21;101044.23;109103;276;39546;-72
2023/09/09 01:15:56;;;;;;;11.90;8.90;;;;;;;14.24;86.36;101046.99;109117;276;39070;-74
2023/09/09 01:18:33;;;;;;;9.70;8.50;;;;;;;14.21;86.73;101045.31;108948;276;39369;-72
2023/09/09 01:21:09;;;;;;;14.70;9.40;;;;;;;14.22;86.67;101047.60;109120;276;38741;-72
2023/09/09 01:23:43;;;;;;;9.20;8.20;;;;;;;14.22;86.80;101044.27;109001;276;175092;-73
2023/09/09 01:26:17;;;;;;;9.60;8.60;;;;;;;14.18;86.60;101042.48;109113;276;39361;-73
2023/09/09 01:28:52;;;;;;;9.80;8.80;;;;;;;14.16;86.79;101041.68;109136;276;38335;-72
2023/09/09 01:31:26;;;;;;;9.00;8.10;;;;;;;14.13;86.62;101045.50;109114;276;38447;-74
2023/09/09 01:34:00;;;;;;;9.70;8.60;;;;;;;14.09;86.69;101044.44;109154;276;38310;-76
2023/09/09 01:36:34;;;;;;;9.40;8.20;;;;;;;14.06;86.49;101047.39;108915;277;39403;-76
2023/09/09 01:39:08;;;;;;;10.10;9.10;;;;;;;14.04;86.64;101044.48;109020;276;39099;-74
2023/09/09 01:41:49;;;;;;;10.50;8.60;;;;;;;14.03;86.67;101040.98;109018;276;40072;-72
2023/09/09 01:44:28;;;;;;;11.50;9.00;;;;;;;14.03;86.92;101038.36;108891;277;38552;-72
2023/09/09 01:47:02;;;;;;;13.60;8.50;;;;;;;14.04;86.77;101046.25;108950;277;39484;-73
2023/09/09 01:49:36;;;;;;;10.60;9.20;;;;;;;14.04;86.61;101047.81;108925;276;39830;-74
2023/09/09 01:52:11;;;;;;;12.10;8.90;;;;;;;14.02;86.52;101043.86;108942;277;38410;-74
2023/09/09 01:54:46;;;;;;;11.50;8.30;;;;;;;13.93;85.98;101041.77;108916;276;39360;-71
2023/09/09 01:57:21;;;;;;;8.50;7.60;;;;;;;13.87;86.34;101041.98;109014;276;39297;-72
2023/09/09 01:59:57;;;;;;;8.50;7.70;;;;;;;13.83;86.27;101046.21;108903;277;38397;-74
2023/09/09 02:02:31;;;;;;;9.00;7.90;;;;;;;13.80;86.42;101049.50;108893;273;39463;-75
2023/09/09 02:05:09;;;;;;;8.80;8.00;;;;;;;13.78;86.73;101051.16;108949;277;39405;-73
2023/09/09 02:07:43;;;;;;;9.60;8.30;;;;;;;13.77;86.63;101050.84;108895;277;38746;-73
2023/09/09 02:10:18;;;;;;;8.80;8.00;;;;;;;13.76;86.69;101053.36;108896;277;38318;-75
2023/09/09 02:12:51;;;;;;;12.20;8.90;;;;;;;13.73;86.61;101059.77;108889;276;38234;-74
2023/09/09 02:15:26;;;;;;;10.10;9.10;;;;;;;13.70;86.73;101056.05;108804;277;175098;-77
2023/09/09 02:18:00;;;;;;;9.50;8.50;;;;;;;13.67;86.78;101059.64;108884;277;38229;-75
2023/09/09 02:20:34;;;;;;;14.40;8.40;;;;;;;13.65;86.75;101056.41;108910;277;38411;-74
2023/09/09 02:23:09;;;;;;;10.20;9.10;;;;;;;13.64;86.89;101058.36;108892;277;38548;-71
2023/09/09 02:25:43;;;;;;;11.40;9.30;;;;;;;13.65;87.17;101057.81;108895;276;38927;-71
2023/09/09 02:28:18;;;;;;;13.70;10.20;;;;;;;13.66;87.24;101060.05;108968;276;38743;-72
2023/09/09 02:30:52;;;;;;;11.70;10.00;;;;;;;13.65;87.00;101056.93;108938;277;38729;-74
2023/09/09 02:33:26;;;;;;;10.80;9.70;;;;;;;13.64;86.93;101060.11;108906;277;39349;-71
2023/09/09 02:36:02;;;;;;;11.30;9.40;;;;;;;13.62;87.15;101055.27;108939;277;38189;-73
2023/09/09 02:38:36;;;;;;;10.80;9.80;;;;;;;13.61;87.09;101058.50;108945;277;38229;-76
2023/09/09 02:41:12;;;;;;;10.90;9.30;;;;;;;13.58;87.23;101056.31;108971;277;38170;-75
2023/09/09 02:43:46;;;;;;;12.40;10.30;;;;;;;13.58;87.33;101055.44;108926;277;38233;-73
2023/09/09 02:46:22;;;;;;;12.70;11.40;;;;;;;13.57;87.36;101055.32;108887;277;38446;-71
2023/09/09 02:48:56;;;;;;;11.00;9.90;;;;;;;13.55;87.39;101055.41;108958;277;38187;-75
2023/09/09 02:51:30;;;;;;;12.10;10.90;;;;;;;13.53;87.48;101057.25;108911;277;38221;-72
2023/09/09 02:54:04;;;;;;;12.40;10.40;;;;;;;13.50;87.49;101053.83;108937;277;38287;-74
2023/09/09 02:56:38;;;;;;;11.90;10.50;;;;;;;13.49;87.43;101054.41;108769;277;175142;-72
2023/09/09 02:59:12;;;;;;;11.80;10.50;;;;;;;13.48;87.34;101061.83;108983;277;38695;-75
2023/09/09 03:01:46;;;;;;;14.30;10.20;;;;;;;13.45;87.33;101056.83;108901;277;38522;-76
2023/09/09 03:04:20;;;;;;;12.40;10.40;;;;;;;13.43;87.32;101060.96;108931;277;38129;-71
2023/09/09 03:06:55;;;;;;;11.90;10.50;;;;;;;13.41;87.34;101062.95;108917;277;38451;-72
2023/09/09 03:09:30;;;;;;;12.60;11.30;;;;;;;13.39;87.36;101064.23;108941;277;39340;-72
2023/09/09 03:12:05;;;;;;;13.00;11.70;;;;;;;13.38;87.50;101061.30;108930;277;38162;-71
2023/09/09 03:14:39;;;;;;;13.50;12.10;;;;;;;13.39;87.69;101059.70;108925;277;38227;-76
2023/09/09 03:17:13;;;;;;;14.60;11.70;;;;;;;13.39;87.74;101063.20;108912;277;38442;-72
2023/09/09 03:19:48;;;;;;;12.50;11.10;;;;;;;13.38;87.71;101064.11;108950;277;39931;-72
2023/09/09 03:22:22;;;;;;;14.40;11.20;;;;;;;13.37;87.72;101066.80;108916;277;38287;-73
2023/09/09 03:24:56;;;;;;;13.30;10.90;;;;;;;13.35;87.70;101067.03;108918;277;39994;-71
2023/09/09 03:27:29;;;;;;;13.30;11.10;;;;;;;13.34;87.86;101065.70;108903;277;38221;-73
2023/09/09 03:30:04;;;;;;;12.30;11.10;;;;;;;13.32;87.82;101062.06;108932;277;38754;-71
2023/09/09 03:32:37;;;;;;;13.70;12.00;;;;;;;13.32;87.86;101057.89;108971;277;39534;-73
2023/09/09 03:35:13;;;;;;;15.70;12.60;;;;;;;13.31;87.79;101059.50;108941;277;38177;-73
2023/09/09 03:37:47;;;;;;;17.70;12.00;;;;;;;13.30;87.95;101056.03;108944;277;38590;-73
2023/09/09 03:40:21;;;;;;;13.10;11.70;;;;;;;13.29;88.01;101054.12;108904;277;38636;-72
2023/09/09 03:42:55;;;;;;;12.40;11.10;;;;;;;13.28;88.10;101055.02;108930;277;38174;-72
2023/09/09 03:45:29;;;;;;;11.90;10.70;;;;;;;13.28;87.95;101055.94;108876;277;38295;-71
2023/09/09 03:48:03;;;;;;;12.80;11.50;;;;;;;13.24;87.82;101056.24;108977;277;38306;-73
2023/09/09 03:50:37;;;;;;;14.90;12.30;;;;;;;13.22;88.14;101058.77;108877;277;38302;-70
2023/09/09 03:53:11;;;;;;;13.80;11.70;;;;;;;13.21;88.26;101055.48;108298;277;899024;-76
2023/09/09 03:55:45;;;;;;;12.80;11.60;;;;;;;13.20;88.21;101053.58;108928;277;40086;-77
2023/09/09 03:58:19;;;;;;;13.30;11.90;;;;;;;13.19;88.27;101047.66;108972;277;39791;-71
2023/09/09 04:01:04;;;;;;;13.20;11.80;;;;;;;13.17;88.20;101045.10;108947;277;38147;-74
2023/09/09 04:03:38;;;;;;;15.10;12.20;;;;;;;13.14;88.31;101045.38;108938;277;38502;-71
2023/09/09 04:06:12;;;;;;;14.60;12.90;;;;;;;13.15;88.49;101041.84;108928;277;38482;-71
2023/09/09 04:08:47;;;;;;;14.20;12.70;;;;;;;13.15;88.47;101039.36;108883;277;38485;-71
2023/09/09 04:11:21;;;;;;;15.60;12.10;;;;;;;13.16;88.65;101039.17;108899;279;42292;-74
2023/09/09 04:14:15;;;;;;;15.20;12.80;;;;;;;13.18;88.74;101044.88;108846;278;172468;-71
2023/09/09 04:16:49;;;;;;;13.70;11.80;;;;;;;13.20;88.87;101047.27;108927;278;38761;-72
2023/09/09 04:19:24;;;;;;;15.60;12.30;;;;;;;13.21;88.96;101043.91;108890;278;39386;-75
2023/09/09 04:21:58;;;;;;;14.70;13.10;;;;;;;13.23;88.96;101046.13;108887;279;38334;-74
2023/09/09 04:24:32;;;;;;;14.10;12.60;;;;;;;13.24;88.93;101049.62;108908;278;39628;-71
2023/09/09 04:27:08;;;;;;;14.80;12.30;;;;;;;13.22;88.84;101050.02;108890;279;39518;-71
2023/09/09 04:29:42;;;;;;;15.00;12.90;;;;;;;13.20;88.99;101050.08;108923;278;38705;-75
2023/09/09 04:32:16;;;;;;;14.40;12.40;;;;;;;13.21;89.12;101051.80;108900;279;38494;-73
2023/09/09 04:34:51;;;;;;;15.90;12.20;;;;;;;13.22;89.20;101053.88;108918;278;38849;-71
2023/09/09 04:37:27;;;;;;;14.10;12.70;;;;;;;13.24;89.21;101054.50;108909;278;38165;-73
2023/09/09 04:40:05;;;;;;;15.20;13.50;;;;;;;13.24;89.20;101056.42;108929;279;38275;-71
2023/09/09 04:42:39;;;;;;;14.60;13.10;;;;;;;13.25;89.31;101061.29;108905;278;38232;-72
2023/09/09 04:45:14;;;;;;;14.10;12.50;;;;;;;13.28;89.39;101062.55;108896;278;38774;-73
2023/09/09 04:47:47;;;;;;;13.50;12.30;;;;;;;13.32;89.33;101064.20;108895;278;39763;-71
2023/09/09 04:50:21;;;;;;;14.50;11.90;;;;;;;13.34;89.20;101067.08;108274;278;899600;-71
2023/09/09 04:52:55;;;;;;;12.50;11.20;;;;;;;13.35;89.21;101071.41;108944;278;38431;-73
2023/09/09 04:55:29;;;;;;;14.30;12.30;;;;;;;13.38;89.43;101078.31;108912;278;38672;-72
2023/09/09 04:58:03;;;;;;;13.50;12.00;;;;;;;13.41;89.26;101074.52;108928;278;38217;-72
2023/09/09 05:00:38;;;;;;;12.70;11.50;;;;;;;13.40;88.84;101075.59;108873;278;38572;-72
2023/09/09 05:03:12;;;;;;;13.40;12.10;;;;;;;13.41;89.03;101073.85;108962;278;38232;-74
2023/09/09 05:05:46;;;;;;;13.20;11.80;;;;;;;13.46;89.52;101074.19;108934;278;38191;-71
2023/09/09 05:08:20;;;;;;;13.80;11.60;;;;;;;13.53;89.87;101077.40;108916;278;38364;-75
2023/09/09 05:10:55;;;;;;;15.70;12.30;;;;;;;13.60;89.80;101078.91;108943;277;39306;-73
2023/09/09 05:13:29;;;;;;;14.10;11.90;;;;;;;13.67;89.95;101079.98;108935;277;39100;-71
2023/09/09 05:16:05;;;;;;;14.30;12.80;;;;;;;13.80;90.60;101083.33;108879;277;39341;-71
2023/09/09 05:18:40;;;;;;;14.70;12.90;;;;;;;13.94;90.90;101079.25;108935;277;38147;-71
2023/09/09 05:21:14;;;;;;;15.40;12.20;;;;;;;14.10;91.22;101083.50;108877;277;38918;-74
2023/09/09 05:23:48;;;;;;;19.60;13.40;;;;;;;14.37;91.93;101083.46;108913;277;38257;-72
2023/09/09 05:26:21;;;;;;;16.00;13.10;;;;;;;14.77;94.01;101086.82;108918;277;38131;-72
2023/09/09 05:28:56;;;;;;;20.10;14.30;;;;;;;15.30;94.06;101083.90;108903;277;39041;-72
2023/09/09 05:31:30;;;;;;;18.70;15.10;;;;;;;15.86;92.80;101082.37;108891;277;39786;-72
2023/09/09 05:34:04;;;;;;;17.60;15.60;;;;;;;16.33;90.87;101075.79;108962;277;38438;-73
2023/09/09 05:36:38;;;;;;;18.00;15.30;;;;;;;16.75;89.17;101078.93;108914;277;39332;-75
2023/09/09 05:39:13;;;;;;;17.30;15.50;;;;;;;16.90;87.08;101075.67;108887;277;38141;-72
2023/09/09 05:41:52;;;;;;;21.90;17.90;;;;;;;16.89;85.86;101076.42;108915;277;38189;-74
2023/09/09 05:44:28;;;;;;;19.90;16.40;;;;;;;16.86;85.32;101073.39;108904;277;38144;-71
2023/09/09 05:47:02;;;;;;;22.10;16.60;;;;;;;16.86;85.46;101073.27;108933;277;38634;-73
2023/09/09 05:49:36;;;;;;;24.90;18.00;;;;;;;16.90;85.71;101074.62;108942;277;39896;-73
2023/09/09 05:52:13;;;;;;;21.10;18.40;;;;;;;16.97;85.95;101075.27;108917;277;38736;-70
2023/09/09 05:54:47;;;;;;;21.20;17.80;;;;;;;17.11;86.10;101077.89;108926;277;38151;-74
2023/09/09 05:57:22;;;;;;;21.50;18.60;;;;;;;17.46;87.06;101077.77;108938;277;38418;-72
2023/09/09 05:59:56;;;;;;;20.90;18.40;;;;;;;17.94;87.24;101079.28;108937;277;38470;-72
2023/09/09 06:02:30;;;;;;;21.90;17.50;;;;;;;18.51;87.68;101081.25;108997;277;38264;-72
2023/09/09 06:05:06;;;;;;;24.30;16.90;;;;;;;19.04;84.77;101080.72;108885;277;39890;-73
2023/09/09 06:07:39;;;;;;;20.80;16.70;;;;;;;19.50;83.08;101077.44;108902;277;38434;-75
2023/09/09 06:10:14;;;;;;;22.00;17.90;;;;;;;19.88;80.67;101075.68;108787;277;174764;-75
2023/09/09 06:12:48;;;;;;;23.20;17.40;;;;;;;20.16;79.29;101077.02;108977;277;39199;-75
2023/09/09 06:15:22;;;;;;;24.20;17.20;;;;;;;20.26;77.43;101079.75;108931;277;39658;-73
2023/09/09 06:17:58;;;;;;;24.80;17.30;;;;;;;20.18;75.66;101080.45;108924;277;38211;-72
2023/09/09 06:20:33;;;;;;;20.70;16.60;;;;;;;20.07;75.60;101084.52;108929;277;38923;-73
2023/09/09 06:23:07;;;;;;;24.90;17.40;;;;;;;20.04;75.95;101082.95;108918;277;38993;-74
2023/09/09 06:25:41;;;;;;;24.10;17.80;;;;;;;20.02;76.11;101085.23;108896;277;39597;-74
2023/09/09 06:28:18;;;;;;;23.90;17.80;;;;;;;19.98;75.99;101089.23;108933;277;39847;-73
2023/09/09 06:30:54;;;;;;;25.30;17.50;;;;;;;19.93;76.05;101093.80;108215;277;893395;-72
2023/09/09 06:33:29;;;;;;;26.70;19.50;;;;;;;19.89;75.72;101095.52;108957;277;39077;-74
2023/09/09 06:36:03;;;;;;;21.00;18.00;;;;;;;19.86;75.72;101095.84;108911;277;39871;-74
2023/09/09 06:38:38;;;;;;;27.10;16.50;;;;;;;19.86;75.77;101100.98;108911;277;38279;-72
2023/09/09 06:41:14;;;;;;;27.00;16.60;;;;;;;19.82;75.73;101100.52;108929;277;39612;-74
2023/09/09 06:43:49;;;;;;;28.00;17.00;;;;;;;19.86;76.09;101103.64;108931;277;38204;-73
2023/09/09 06:46:23;;;;;;;37.90;17.90;;;;;;;20.00;76.86;101102.39;108916;277;38663;-74
2023/09/09 06:48:57;;;;;;;46.10;18.50;;;;;;;20.12;76.00;101104.09;109071;277;39212;-75
2023/09/09 06:51:32;;;;;;;43.30;16.70;;;;;;;20.24;75.61;101107.87;108950;277;39614;-76
2023/09/09 06:54:06;;;;;;;36.40;17.20;;;;;;;20.33;74.75;101103.38;108996;277;39082;-75
2023/09/09 06:56:44;;;;;;;27.10;15.60;;;;;;;20.36;73.97;101106.21;108443;277;578228;-74
2023/09/09 06:59:18;;;;;;;28.60;16.60;;;;;;;20.41;74.25;101103.17;108940;277;39529;-75
2023/09/09 07:01:52;;;;;;;25.10;16.70;;;;;;;20.56;73.98;101103.05;108934;277;38447;-75
2023/09/09 07:04:26;;;;;;;31.60;19.50;;;;;;;20.68;73.75;101106.54;108985;277;38367;-76
2023/09/09 07:07:00;;;;;;;34.90;20.20;;;;;;;20.79;73.22;101105.02;108884;277;38757;-75
2023/09/09 07:09:35;;;;;;;35.30;19.60;;;;;;;20.95;73.42;101104.08;108920;277;38332;-75
2023/09/09 07:12:12;;;;;;;33.80;19.50;;;;;;;21.07;71.88;101100.77;108914;277;38274;-74
2023/09/09 07:14:47;;;;;;;29.70;19.80;;;;;;;21.07;71.74;101095.44;108954;277;38803;-75
2023/09/09 07:17:20;;;;;;;35.10;19.90;;;;;;;21.17;72.01;101095.80;108894;277;38814;-74
2023/09/09 07:19:54;;;;;;;30.50;18.60;;;;;;;21.33;72.40;101092.21;108917;277;38863;-73
2023/09/09 07:22:30;;;;;;;28.80;19.70;;;;;;;21.52;72.33;101088.16;108905;277;38252;-74
2023/09/09 07:25:07;;;;;;;29.40;19.20;;;;;;;21.70;72.02;101088.69;108926;277;38287;-72
2023/09/09 07:27:41;;;;;;;30.40;20.00;;;;;;;21.86;71.49;101080.17;108855;277;38754;-75
2023/09/09 07:30:16;;;;;;;32.00;20.20;;;;;;;22.00;71.27;101079.49;108916;277;38495;-75
2023/09/09 07:32:55;;;;;;;32.40;20.90;;;;;;;22.12;71.17;101079.50;108960;277;39261;-73
2023/09/09 07:35:29;;;;;;;27.00;19.10;;;;;;;22.26;71.61;101077.08;108947;277;39949;-75
2023/09/09 07:38:04;;;;;;;32.90;19.40;;;;;;;22.39;71.25;101077.48;108908;277;38506;-74
2023/09/09 07:40:38;;;;;;;27.30;17.40;;;;;;;22.51;70.56;101077.83;108903;277;38581;-72
2023/09/09 07:43:18;;;;;;;27.10;17.60;;;;;;;22.58;69.64;101083.27;108946;277;38732;-75
2023/09/09 07:45:53;;;;;;;32.30;17.20;;;;;;;22.66;69.22;101083.75;108896;277;39915;-74
2023/09/09 07:48:27;;;;;;;29.70;17.80;;;;;;;22.78;69.50;101082.65;108845;277;38258;-73
2023/09/09 07:51:02;;;;;;;22.90;16.10;;;;;;;22.95;69.26;101080.69;108953;277;39899;-74
2023/09/09 07:53:36;;;;;;;25.80;16.80;;;;;;;23.10;69.08;101079.23;108870;277;38561;-78
2023/09/09 07:56:13;;;;;;;26.80;16.90;;;;;;;23.28;68.04;101077.46;108936;277;39448;-74
2023/09/09 07:58:47;;;;;;;24.20;16.00;;;;;;;23.49;68.33;101081.45;108903;277;38325;-73
2023/09/09 08:01:22;;;;;;;20.60;15.50;;;;;;;23.72;67.56;101082.11;108948;277;38172;-75
2023/09/09 08:03:59;;;;;;;23.10;15.60;;;;;;;24.06;67.99;101077.54;108892;277;38464;-73
2023/09/09 08:06:33;;;;;;;23.80;14.70;;;;;;;24.35;66.72;101076.31;108918;277;38716;-75
2023/09/09 08:09:11;;;;;;;19.70;13.80;;;;;;;24.69;67.04;101078.63;108865;277;38298;-75
2023/09/09 08:11:45;;;;;;;22.30;14.10;;;;;;;25.09;64.58;101084.06;108931;277;38261;-74
2023/09/09 08:14:22;;;;;;;18.30;13.10;;;;;;;25.42;63.62;101078.99;108917;277;39619;-74
2023/09/09 08:16:56;;;;;;;20.70;13.00;;;;;;;25.84;62.29;101074.48;108959;277;38709;-74
2023/09/09 08:19:31;;;;;;;20.90;13.70;;;;;;;26.25;60.79;101075.96;108946;277;39721;-74
2023/09/09 08:22:06;;;;;;;19.80;13.30;;;;;;;26.52;58.21;101075.43;108883;277;38197;-78
2023/09/09 08:24:42;;;;;;;19.00;12.50;;;;;;;26.80;56.64;101072.52;108932;277;38328;-74
2023/09/09 08:27:17;;;;;;;13.40;11.50;;;;;;;27.16;56.66;101067.65;108958;277;39708;-76
2023/09/09 08:29:53;;;;;;;15.10;11.10;;;;;;;27.56;55.03;101067.11;108949;277;38767;-73
2023/09/09 08:32:28;;;;;;;15.60;10.20;;;;;;;27.79;54.18;101071.95;108941;277;38655;-76
2023/09/09 08:35:03;;;;;;;11.00;9.10;;;;;;;27.89;52.86;101074.79;108990;277;38249;-77
2023/09/09 08:37:41;;;;;;;15.90;9.10;;;;;;;27.95;51.65;101070.60;108938;277;39615;-76
2023/09/09 08:40:20;;;;;;;13.60;10.10;;;;;;;28.05;52.34;101070.86;108873;277;39664;-78
2023/09/09 08:43:03;;;;;;;11.20;10.00;;;;;;;28.05;50.07;101073.38;108941;277;38160;-73
2023/09/09 08:45:45;;;;;;;13.60;9.50;;;;;;;28.07;50.19;101079.48;108904;277;39253;-77
2023/09/09 08:48:21;;;;;;;13.50;9.70;;;;;;;28.22;49.43;101076.71;108988;277;38683;-76
2023/09/09 08:50:55;;;;;;;11.50;9.30;;;;;;;28.40;49.89;101076.69;108876;277;38466;-76
2023/09/09 08:53:29;;;;;;;10.60;8.50;;;;;;;28.61;49.58;101078.51;108992;277;39097;-75
2023/09/09 08:56:03;;;;;;;10.80;7.90;;;;;;;28.89;48.81;101074.88;108944;277;39494;-77
2023/09/09 08:58:38;;;;;;;9.50;7.50;;;;;;;29.18;48.34;101073.80;108946;277;38722;-74
2023/09/09 09:01:13;;;;;;;9.70;7.40;;;;;;;29.53;47.71;101071.67;108911;277;38757;-75
2023/09/09 09:03:47;;;;;;;12.30;7.40;;;;;;;29.78;47.37;101071.27;108910;277;38726;-77
2023/09/09 09:06:22;;;;;;;6.70;5.90;;;;;;;29.91;46.62;101075.58;108904;277;38152;-81
2023/09/09 09:08:56;;;;;;;6.80;5.50;;;;;;;29.96;46.46;101071.91;108747;277;173937;-77
2023/09/09 09:11:30;;;;;;;7.80;5.80;;;;;;;30.05;45.51;101073.10;108887;277;39198;-75
2023/09/09 09:14:10;;;;;;;6.40;5.10;;;;;;;30.09;44.82;101075.89;108932;277;38212;-76
2023/09/09 09:16:45;;;;;;;10.40;5.80;;;;;;;30.17;43.86;101072.67;108899;277;39692;-76
2023/09/09 09:19:28;;;;;;;6.50;4.90;;;;;;;30.15;43.69;101077.02;108873;277;39479;-74
2023/09/09 09:22:02;;;;;;;5.10;4.60;;;;;;;30.29;43.34;101081.29;108896;277;38787;-76
2023/09/09 09:24:45;;;;;;;6.50;4.80;;;;;;;30.49;43.05;101079.71;108907;277;38658;-79
2023/09/09 09:27:20;;;;;;;6.30;5.00;;;;;;;30.79;42.99;101077.63;108960;277;38728;-76
2023/09/09 09:29:53;;;;;;;5.50;4.90;;;;;;;31.09;42.14;101074.75;108897;277;38931;-75
2023/09/09 09:32:28;;;;;;;8.20;5.10;;;;;;;31.42;42.12;101067.96;108911;277;38140;-76
2023/09/09 09:35:02;;;;;;;6.40;5.50;;;;;;;31.75;41.27;101069.88;108932;277;38907;-77
2023/09/09 09:37:36;;;;;;;5.90;5.30;;;;;;;31.89;40.72;101068.69;108919;277;39152;-76
2023/09/09 09:40:13;;;;;;;5.20;4.80;;;;;;;31.90;39.68;101070.70;108929;277;39315;-76
2023/09/09 09:42:48;;;;;;;6.40;5.40;;;;;;;31.75;40.41;101071.80;108959;277;40640;-79
2023/09/09 09:45:24;;;;;;;6.80;5.40;;;;;;;31.57;39.94;101065.65;108908;277;38423;-75
2023/09/09 09:48:00;;;;;;;5.60;5.00;;;;;;;31.25;39.71;101068.31;108961;277;38294;-75
2023/09/09 09:50:35;;;;;;;5.80;4.60;;;;;;;30.91;40.78;101069.85;108930;277;38158;-78
2023/09/09 09:53:10;;;;;;;5.40;4.40;;;;;;;30.66;41.07;101067.98;108879;277;39022;-72
2023/09/09 09:55:45;;;;;;;8.00;4.50;;;;;;;30.44;41.58;101076.00;108920;277;38451;-74
2023/09/09 09:58:19;;;;;;;6.80;4.80;;;;;;;30.18;42.13;101070.20;108943;277;38188;-76
2023/09/09 10:00:53;;;;;;;5.10;4.60;;;;;;;29.96;42.63;101075.73;108903;277;39602;-77
2023/09/09 10:03:27;;;;;;;5.80;4.20;;;;;;;29.80;41.76;101075.84;108935;277;38401;-75
2023/09/09 10:06:01;;;;;;;4.40;4.10;;;;;;;29.62;42.24;101068.38;108934;277;39164;-75
2023/09/09 10:08:39;;;;;;;6.40;5.10;;;;;;;29.50;42.96;101071.39;108898;277;39685;-75
2023/09/09 10:11:15;;;;;;;6.20;4.80;;;;;;;29.37;42.64;101071.95;108840;277;38275;-75
2023/09/09 10:13:54;;;;;;;6.00;4.60;;;;;;;29.22;42.23;101068.80;108902;277;38227;-75
2023/09/09 10:16:29;;;;;;;7.00;4.20;;;;;;;29.16;43.08;101071.30;108922;277;38218;-75
2023/09/09 10:19:04;;;;;;;5.70;4.50;;;;;;;29.12;42.59;101067.61;108921;277;38362;-75
2023/09/09 10:21:38;;;;;;;4.70;3.90;;;;;;;29.13;43.35;101064.68;108802;277;174369;-73
2023/09/09 10:24:13;;;;;;;4.40;3.90;;;;;;;29.12;43.55;101067.95;108877;277;38528;-75
2023/09/09 10:26:47;;;;;;;5.00;4.10;;;;;;;29.12;42.69;101068.02;108827;277;174359;-76
2023/09/09 10:29:21;;;;;;;6.10;4.20;;;;;;;28.98;42.18;101062.48;108955;277;39724;-76
2023/09/09 10:31:57;;;;;;;5.20;3.90;;;;;;;28.90;42.58;101060.55;108892;277;38177;-75
2023/09/09 10:34:32;;;;;;;4.70;4.10;;;;;;;28.90;42.92;101059.79;108938;277;38473;-76
2023/09/09 10:37:09;;;;;;;5.00;4.30;;;;;;;28.92;43.03;101059.48;108924;277;38765;-72
2023/09/09 10:39:43;;;;;;;4.90;4.00;;;;;;;28.93;43.06;101060.30;108904;277;38685;-76
2023/09/09 10:42:17;;;;;;;4.30;3.90;;;;;;;28.92;42.85;101068.46;108907;277;38432;-73
2023/09/09 10:44:54;;;;;;;5.80;4.30;;;;;;;28.90;43.08;101065.25;108895;277;39678;-74
2023/09/09 10:47:28;;;;;;;4.60;4.00;;;;;;;28.90;43.39;101060.60;108936;277;38371;-72
2023/09/09 10:50:10;;;;;;;5.50;4.40;;;;;;;28.88;43.08;101056.29;108945;277;38254;-73
2023/09/09 10:52:43;;;;;;;4.80;4.30;;;;;;;28.81;42.59;101059.15;108895;277;39270;-73
2023/09/09 10:55:19;;;;;;;4.90;4.20;;;;;;;28.76;42.76;101055.55;108900;277;39619;-74
2023/09/09 10:58:01;;;;;;;4.90;4.40;;;;;;;28.72;42.93;101055.77;108954;277;38272;-72
2023/09/09 11:00:42;;;;;;;5.00;4.20;;;;;;;28.66;42.96;101055.19;108895;277;38471;-72
2023/09/09 11:03:19;;;;;;;7.40;4.60;;;;;;;28.57;42.70;101051.45;108893;277;38746;-76
2023/09/09 11:06:06;;;;;;;4.70;4.10;;;;;;;28.43;42.61;101046.19;108935;277;38463;-85
2023/09/09 11:08:46;;;;;;;6.30;4.20;;;;;;;28.36;43.30;101047.31;108918;277;38228;-74
2023/09/09 11:11:26;;;;;;;4.70;4.10;;;;;;;28.33;43.24;101047.95;108927;277;38151;-75
2023/09/09 11:14:06;;;;;;;4.80;4.20;;;;;;;28.23;43.33;101045.51;108971;277;38754;-71
2023/09/09 11:16:40;;;;;;;5.00;3.90;;;;;;;28.22;43.76;101042.91;108934;277;38489;-76
2023/09/09 11:19:17;;;;;;;6.00;4.10;;;;;;;28.20;43.56;101042.97;108913;277;39760;-74
2023/09/09 11:21:52;;;;;;;4.70;4.30;;;;;;;28.18;43.63;101040.02;108879;277;187628;-75
2023/09/09 11:24:26;;;;;;;6.70;4.10;;;;;;;28.14;43.67;101040.93;108967;277;38220;-76
2023/09/09 11:27:00;;;;;;;5.80;4.70;;;;;;;28.10;43.23;101042.95;108927;277;38639;-73
2023/09/09 11:29:34;;;;;;;6.00;4.90;;;;;;;28.09;43.25;101041.02;108967;277;39906;-71
2023/09/09 11:32:19;;;;;;;6.00;4.70;;;;;;;28.05;42.82;101045.02;108944;277;38256;-72
2023/09/09 11:34:56;;;;;;;6.00;4.90;;;;;;;27.98;43.40;101043.95;108884;277;39257;-70
2023/09/09 11:37:30;;;;;;;5.80;4.60;;;;;;;27.94;43.06;101046.15;108910;277;38501;-76
2023/09/09 11:40:09;;;;;;;9.10;4.60;;;;;;;27.92;42.96;101041.15;108931;277;38452;-73
2023/09/09 11:42:55;;;;;;;7.50;4.60;;;;;;;27.89;43.33;101038.09;108928;277;38246;-77
2023/09/09 11:45:30;;;;;;;6.60;4.60;;;;;;;27.86;43.00;101034.79;108955;277;39494;-77
2023/09/09 11:48:09;;;;;;;5.00;4.60;;;;;;;27.80;43.19;101035.80;108930;277;38328;-74
2023/09/09 11:50:46;;;;;;;10.90;7.50;;;;;;;27.77;43.47;101039.13;108971;277;38257;-74